Time;durP1;ratioP1;P1;durP2;ratioP2;P2;SDS_P1;SDS_P2;PMS_P1;PMS_P2;Temp;Humidity;BMP_temperature;BMP_pressure;BME280_temperature;BME280_humidity;BME280_pressure;Samples;Min_cycle;Max_cycle;Signal;HPM_P1;HPM_P2
2022/06/24 00:02:21;;;;;;;9.13;5.47;;;;;;;22.23;100.00;99925.72;5113397;28;20217;-77
2022/06/24 00:04:53;;;;;;;6.95;4.78;;;;;;;22.52;100.00;99927.34;5113930;28;20204;-77
2022/06/24 00:07:20;;;;;;;7.78;5.00;;;;;;;22.33;100.00;99948.25;5113983;28;20204;-78
2022/06/24 00:09:47;;;;;;;9.10;5.22;;;;;;;21.94;100.00;99958.41;5077348;28;20225;-78
2022/06/24 00:12:17;;;;;;;7.75;4.95;;;;;;;22.08;100.00;99952.69;5110210;28;20201;-78
2022/06/24 00:14:46;;;;;;;7.90;4.95;;;;;;;22.23;100.00;99937.16;5093852;28;20210;-76
2022/06/24 00:17:14;;;;;;;9.32;4.80;;;;;;;22.26;100.00;99945.91;5093743;28;20194;-77
2022/06/24 00:20:03;;;;;;;8.15;4.50;;;;;;;22.19;100.00;99966.38;5104865;28;20225;-77
2022/06/24 00:22:31;;;;;;;5.72;4.50;;;;;;;21.99;100.00;99959.13;5069931;28;20207;-76
2022/06/24 00:25:09;;;;;;;9.00;4.65;;;;;;;21.66;100.00;99939.09;5071264;28;20191;-76
2022/06/24 00:27:38;;;;;;;5.50;4.97;;;;;;;22.01;100.00;99967.84;5036336;28;20195;-77
2022/06/24 00:30:10;;;;;;;12.18;5.10;;;;;;;22.11;100.00;99963.16;5065367;28;20750;-76
2022/06/24 00:32:37;;;;;;;7.45;4.70;;;;;;;21.97;100.00;99937.22;5070463;28;20199;-76
2022/06/24 00:35:06;;;;;;;5.28;4.47;;;;;;;22.44;100.00;99955.84;5070084;28;20202;-77
2022/06/24 00:37:34;;;;;;;6.63;4.60;;;;;;;22.53;100.00;99960.78;5070994;28;20210;-77
2022/06/24 00:40:04;;;;;;;8.20;4.97;;;;;;;22.65;100.00;99961.19;5070512;28;20206;-77
2022/06/24 00:42:32;;;;;;;5.85;4.95;;;;;;;22.22;100.00;99946.00;5070559;28;20198;-77
2022/06/24 00:45:15;;;;;;;5.80;4.60;;;;;;;22.27;100.00;99929.13;5017224;28;20691;-77
2022/06/24 00:47:43;;;;;;;8.40;4.80;;;;;;;22.47;100.00;99955.72;5052083;28;20648;-76
2022/06/24 00:50:21;;;;;;;6.22;4.53;;;;;;;22.65;100.00;99955.91;5070439;28;20219;-77
2022/06/24 00:52:48;;;;;;;52.97;5.40;;;;;;;22.72;100.00;99946.03;5070294;28;20234;-77
2022/06/24 00:55:19;;;;;;;5.80;4.53;;;;;;;22.83;100.00;99949.13;5020798;28;20197;-77
2022/06/24 00:57:46;;;;;;;6.18;4.80;;;;;;;22.75;100.00;99951.19;5069821;28;20680;-77
2022/06/24 01:00:16;;;;;;;4.95;4.38;;;;;;;22.86;100.00;99946.38;5104077;28;20209;-78
2022/06/24 01:02:43;;;;;;;5.18;4.50;;;;;;;22.84;100.00;99956.13;5109554;28;20198;-78
2022/06/24 01:05:11;;;;;;;6.03;4.50;;;;;;;22.67;100.00;99942.69;5077054;28;20209;-77
2022/06/24 01:07:38;;;;;;;6.45;4.57;;;;;;;22.50;100.00;99934.47;5112853;28;20209;-78
2022/06/24 01:10:06;;;;;;;8.43;3.92;;;;;;;22.61;100.00;99903.25;5112540;28;20818;-77
2022/06/24 01:12:33;;;;;;;7.18;4.53;;;;;;;22.91;100.00;99925.03;5112742;28;20197;-76
2022/06/24 01:15:00;;;;;;;4.80;4.40;;;;;;;22.70;100.00;99876.47;5112467;28;20200;-79
2022/06/24 01:17:29;;;;;;;4.78;4.32;;;;;;;23.06;100.00;99933.25;5113191;28;20229;-76
2022/06/24 01:19:56;;;;;;;5.80;4.50;;;;;;;22.63;100.00;99922.53;5101682;28;20214;-76
2022/06/24 01:22:26;;;;;;;4.45;3.88;;;;;;;22.62;100.00;99941.94;5092679;28;20205;-77
2022/06/24 01:24:54;;;;;;;5.38;3.72;;;;;;;22.31;100.00;99922.81;5092263;28;20202;-76
2022/06/24 01:27:21;;;;;;;4.78;4.18;;;;;;;22.63;100.00;99947.19;5099525;28;20198;-77
2022/06/24 01:29:49;;;;;;;4.70;4.22;;;;;;;22.31;100.00;99946.59;5112194;28;20217;-77
2022/06/24 01:32:15;;;;;;;8.63;4.82;;;;;;;22.43;100.00;99932.97;5112444;28;20192;-78
2022/06/24 01:34:42;;;;;;;5.00;4.45;;;;;;;22.65;100.00;99929.47;5112212;28;20197;-78
2022/06/24 01:37:09;;;;;;;5.28;3.90;;;;;;;22.74;100.00;99928.31;5111309;28;20200;-77
2022/06/24 01:39:38;;;;;;;5.50;4.85;;;;;;;22.64;100.00;99905.75;5112540;28;20196;-76
2022/06/24 01:42:05;;;;;;;7.68;4.85;;;;;;;22.57;100.00;99935.97;5111894;28;20198;-78
2022/06/24 01:44:32;;;;;;;5.10;4.30;;;;;;;22.31;100.00;99893.75;5112908;28;20197;-78
2022/06/24 01:46:59;;;;;;;4.85;4.35;;;;;;;22.63;100.00;99936.63;5112182;28;20201;-77
2022/06/24 01:49:26;;;;;;;4.95;4.35;;;;;;;22.36;100.00;99920.91;5112378;28;20193;-77
2022/06/24 01:51:55;;;;;;;6.35;4.50;;;;;;;22.32;100.00;99914.00;5112494;28;20205;-78
2022/06/24 01:54:23;;;;;;;5.07;4.07;;;;;;;22.38;100.00;99919.91;5095490;28;20229;-78
2022/06/24 01:56:51;;;;;;;6.88;4.00;;;;;;;22.44;100.00;99914.41;5112578;28;20216;-77
2022/06/24 01:59:20;;;;;;;4.45;4.05;;;;;;;22.26;100.00;99924.78;5092773;28;20266;-78
2022/06/24 02:01:47;;;;;;;5.75;4.90;;;;;;;22.11;100.00;99889.22;5111802;28;20197;-77
2022/06/24 02:04:14;;;;;;;4.60;4.22;;;;;;;22.32;100.00;99927.19;5092025;28;20587;-78
2022/06/24 02:06:41;;;;;;;5.07;4.68;;;;;;;22.18;100.00;99920.63;5097477;28;20657;-78
2022/06/24 02:09:08;;;;;;;4.95;4.50;;;;;;;22.23;100.00;99929.25;5111541;28;20201;-76
2022/06/24 02:14:23;;;;;;;8.00;4.53;;;;;;;22.41;100.00;99929.50;5091854;28;20205;-78
2022/06/24 02:16:50;;;;;;;5.07;4.60;;;;;;;22.35;100.00;99916.53;5071159;28;20285;-78
2022/06/24 02:19:17;;;;;;;5.43;4.65;;;;;;;22.27;100.00;99906.22;5111819;28;20204;-77
2022/06/24 02:21:44;;;;;;;4.50;4.20;;;;;;;22.26;100.00;99891.28;5112033;28;20197;-79
2022/06/24 02:24:13;;;;;;;6.72;4.57;;;;;;;22.23;100.00;99905.47;5111740;28;20573;-78
2022/06/24 02:26:40;;;;;;;7.00;4.60;;;;;;;22.25;100.00;99923.91;5087342;28;20205;-78
2022/06/24 02:29:06;;;;;;;6.28;4.63;;;;;;;22.26;100.00;99919.50;5111831;28;20201;-78
2022/06/24 02:31:35;;;;;;;7.57;4.90;;;;;;;22.27;100.00;99886.88;5111902;28;20221;-77
2022/06/24 02:34:01;;;;;;;4.80;4.50;;;;;;;22.37;100.00;99906.75;5111790;28;20198;-78
2022/06/24 02:36:28;;;;;;;4.88;4.40;;;;;;;22.47;100.00;99902.88;5111794;28;20201;-77
2022/06/24 02:38:55;;;;;;;4.47;4.07;;;;;;;22.56;100.00;99913.97;5111561;28;20629;-78
2022/06/24 02:41:22;;;;;;;5.40;4.57;;;;;;;22.58;100.00;99916.56;5104594;28;20205;-78
2022/06/24 02:43:49;;;;;;;5.00;4.53;;;;;;;22.66;100.00;99919.78;5091352;28;20209;-77
2022/06/24 02:46:17;;;;;;;6.80;5.05;;;;;;;22.59;100.00;99916.50;5100152;28;20312;-78
2022/06/24 02:48:46;;;;;;;4.82;4.43;;;;;;;22.45;100.00;99915.28;5116392;28;20259;-78
2022/06/24 02:51:14;;;;;;;4.57;4.15;;;;;;;22.59;100.00;99913.00;5114966;28;20681;-79
2022/06/24 02:53:41;;;;;;;9.52;4.50;;;;;;;22.61;100.00;99916.44;5115359;28;20225;-78
2022/06/24 02:56:10;;;;;;;6.88;4.38;;;;;;;22.58;100.00;99917.41;5115583;28;20209;-76
2022/06/24 02:58:38;;;;;;;10.40;4.85;;;;;;;22.53;100.00;99915.84;5074766;28;20685;-79
2022/06/24 03:01:05;;;;;;;4.38;4.00;;;;;;;22.53;100.00;99908.81;5095080;28;20244;-77
2022/06/24 03:03:33;;;;;;;5.72;4.13;;;;;;;22.70;100.00;99918.78;5112127;28;20194;-77
2022/06/24 03:06:01;;;;;;;4.30;3.90;;;;;;;22.86;100.00;99930.53;5114671;28;20587;-74
2022/06/24 03:08:28;;;;;;;4.50;4.20;;;;;;;22.96;100.00;99928.38;5096272;28;20197;-78
2022/06/24 03:10:56;;;;;;;6.45;4.28;;;;;;;22.96;100.00;99939.81;5115820;28;20213;-78
2022/06/24 03:13:23;;;;;;;6.00;4.05;;;;;;;23.01;100.00;99932.56;5115049;28;20658;-77
2022/06/24 03:15:50;;;;;;;4.45;4.05;;;;;;;23.06;100.00;99935.91;5112428;28;20210;-78
2022/06/24 03:18:17;;;;;;;6.07;4.63;;;;;;;22.95;100.00;99929.28;5106298;28;20205;-78
2022/06/24 03:20:45;;;;;;;7.43;4.18;;;;;;;23.01;100.00;99900.81;5114569;28;20567;-79
2022/06/24 03:23:13;;;;;;;6.68;4.55;;;;;;;23.01;100.00;99879.66;5076536;28;20221;-78
2022/06/24 03:25:40;;;;;;;4.82;4.38;;;;;;;23.06;100.00;99927.97;5109433;28;20250;-78
2022/06/24 03:28:15;;;;;;;5.43;4.47;;;;;;;23.26;100.00;99932.47;5107984;28;20201;-79
2022/06/24 03:30:42;;;;;;;5.68;4.18;;;;;;;23.00;100.00;99920.28;5101984;28;20226;-79
2022/06/24 03:33:09;;;;;;;4.43;3.92;;;;;;;22.96;100.00;99908.09;5094100;28;20202;-79
2022/06/24 03:35:36;;;;;;;5.53;4.47;;;;;;;22.46;100.00;99821.88;5093731;28;20194;-79
2022/06/24 03:38:03;;;;;;;5.47;4.60;;;;;;;23.20;100.00;99930.94;5103837;28;20206;-78
2022/06/24 03:40:31;;;;;;;4.10;3.80;;;;;;;23.09;100.00;99922.56;5114378;28;20202;-78
2022/06/24 03:42:58;;;;;;;7.03;4.38;;;;;;;23.18;100.00;99924.88;5114640;28;20197;-77
2022/06/24 03:45:25;;;;;;;6.97;4.53;;;;;;;23.48;100.00;99929.88;5114062;28;20197;-77
2022/06/24 03:47:52;;;;;;;5.00;4.10;;;;;;;23.55;100.00;99931.34;5111468;28;20202;-77
2022/06/24 03:50:19;;;;;;;5.15;4.15;;;;;;;23.31;100.00;99876.75;5112294;28;20232;-77
2022/06/24 03:52:46;;;;;;;10.07;4.40;;;;;;;23.66;100.00;99937.94;5104501;28;20694;-81
2022/06/24 03:55:13;;;;;;;5.05;4.63;;;;;;;23.90;100.00;99949.31;5094439;28;20198;-76
2022/06/24 03:57:41;;;;;;;8.07;4.47;;;;;;;24.04;100.00;99949.59;5111303;28;20190;-77
2022/06/24 04:00:09;;;;;;;6.53;4.25;;;;;;;23.92;100.00;99934.22;5112381;28;20201;-77
2022/06/24 04:02:36;;;;;;;4.75;4.35;;;;;;;24.07;100.00;99927.44;5113639;28;20668;-78
2022/06/24 04:05:03;;;;;;;5.78;4.15;;;;;;;24.09;100.00;99950.28;5114195;28;20575;-77
2022/06/24 04:07:30;;;;;;;6.68;4.60;;;;;;;24.27;100.00;99947.78;5112398;28;20584;-77
2022/06/24 04:09:57;;;;;;;9.05;4.63;;;;;;;24.01;100.00;99948.84;5113574;28;20645;-76
2022/06/24 04:12:24;;;;;;;6.50;4.28;;;;;;;24.21;100.00;99942.75;5112670;28;20225;-77
2022/06/24 04:17:36;;;;;;;4.63;3.92;;;;;;;24.54;100.00;99954.56;5113361;28;20200;-77
2022/06/24 04:20:03;;;;;;;5.38;4.15;;;;;;;24.63;100.00;99959.44;5112882;28;20204;-76
2022/06/24 04:22:29;;;;;;;4.43;4.03;;;;;;;24.64;100.00;99966.47;5112563;28;20212;-77
2022/06/24 04:24:56;;;;;;;5.68;3.88;;;;;;;24.79;100.00;99955.19;5099879;28;20997;-77
2022/06/24 04:27:23;;;;;;;8.75;3.92;;;;;;;24.90;100.00;99968.84;5113609;28;20197;-76
2022/06/24 04:29:50;;;;;;;7.78;4.40;;;;;;;25.00;100.00;99951.59;5113249;28;20220;-76
2022/06/24 04:32:18;;;;;;;5.10;4.25;;;;;;;25.44;100.00;99959.22;5112641;28;20221;-76
2022/06/24 04:34:45;;;;;;;5.90;4.30;;;;;;;25.53;100.00;99965.03;5113108;28;20205;-77
2022/06/24 04:37:12;;;;;;;7.72;5.18;;;;;;;25.38;100.00;99978.13;5112938;28;20193;-77
2022/06/24 04:39:38;;;;;;;8.00;4.97;;;;;;;25.21;100.00;99978.91;5110187;28;20629;-78
2022/06/24 04:42:06;;;;;;;27.23;4.63;;;;;;;25.47;100.00;99980.34;5094350;28;20202;-78
2022/06/24 04:44:33;;;;;;;8.00;4.78;;;;;;;25.72;100.00;99985.38;5111678;28;20194;-77
2022/06/24 04:47:00;;;;;;;6.10;4.22;;;;;;;25.90;100.00;99977.34;5113457;28;20204;-76
2022/06/24 04:49:28;;;;;;;5.18;4.63;;;;;;;25.96;100.00;99969.09;5113406;28;20229;-78
2022/06/24 04:51:55;;;;;;;7.32;4.35;;;;;;;26.30;100.00;99983.34;5112542;28;20225;-77
2022/06/24 04:54:22;;;;;;;4.50;4.10;;;;;;;26.78;100.00;99959.53;5111419;28;20314;-77
2022/06/24 04:56:49;;;;;;;8.20;4.53;;;;;;;27.78;90.34;99996.63;5104496;28;20287;-77
2022/06/24 04:59:16;;;;;;;7.45;4.28;;;;;;;28.21;85.10;100011.03;5097866;28;20649;-76
2022/06/24 05:01:43;;;;;;;7.10;4.00;;;;;;;28.03;84.75;100002.28;5111636;28;20189;-78
2022/06/24 05:04:11;;;;;;;10.55;4.40;;;;;;;27.29;89.09;99995.78;5098796;28;20292;-78
2022/06/24 05:06:39;;;;;;;8.05;3.85;;;;;;;26.73;91.72;99939.44;5111392;28;20679;-79
2022/06/24 05:09:06;;;;;;;5.05;4.50;;;;;;;27.06;94.06;100013.03;5112217;28;20193;-79
2022/06/24 05:11:34;;;;;;;8.02;4.57;;;;;;;26.95;95.98;100010.09;5112787;28;20228;-78
2022/06/24 05:14:00;;;;;;;5.85;4.60;;;;;;;25.92;99.81;99956.03;5106688;27;20197;-76
2022/06/24 05:16:27;;;;;;;5.70;4.38;;;;;;;25.96;100.00;100006.31;5100492;28;20193;-75
2022/06/24 05:18:54;;;;;;;6.88;4.10;;;;;;;25.73;100.00;100014.50;5111873;28;20194;-76
2022/06/24 05:21:21;;;;;;;13.43;4.57;;;;;;;25.87;100.00;100014.69;5111492;28;20190;-76
2022/06/24 05:23:49;;;;;;;19.35;5.30;;;;;;;25.92;100.00;100019.81;5111556;28;20205;-75
2022/06/24 05:26:16;;;;;;;13.73;4.28;;;;;;;25.67;100.00;100003.31;5111613;28;20201;-77
2022/06/24 05:28:42;;;;;;;9.07;3.83;;;;;;;25.58;100.00;100034.69;5111750;28;20193;-77
2022/06/24 05:31:09;;;;;;;6.53;3.97;;;;;;;25.51;100.00;100024.44;5094291;28;20229;-77
2022/06/24 05:33:36;;;;;;;5.65;4.40;;;;;;;25.47;100.00;100041.44;5098251;28;20701;-77
2022/06/24 05:36:03;;;;;;;7.03;4.93;;;;;;;25.18;100.00;100043.59;5111514;28;20569;-75
2022/06/24 05:38:30;;;;;;;4.93;3.78;;;;;;;25.24;100.00;100046.91;5112148;28;20193;-76
2022/06/24 05:40:58;;;;;;;9.52;4.30;;;;;;;25.17;100.00;100046.34;5087931;28;20197;-75
2022/06/24 05:43:25;;;;;;;10.15;4.47;;;;;;;25.22;100.00;100046.97;5111388;28;20593;-75
2022/06/24 05:45:51;;;;;;;9.45;4.63;;;;;;;25.51;100.00;100059.81;5111411;28;20205;-75
2022/06/24 05:48:18;;;;;;;6.40;4.03;;;;;;;25.34;100.00;100053.53;5099934;28;20217;-73
2022/06/24 05:50:45;;;;;;;5.82;4.50;;;;;;;25.00;100.00;100048.91;5091331;28;20209;-73
2022/06/24 05:56:00;;;;;;;5.47;4.97;;;;;;;26.12;100.00;100055.09;5091142;28;20251;-75
2022/06/24 05:58:28;;;;;;;8.77;4.72;;;;;;;26.13;100.00;100040.00;5090882;28;20194;-77
2022/06/24 06:00:55;;;;;;;5.95;4.38;;;;;;;26.97;99.69;100055.22;5090921;28;20572;-76
2022/06/24 06:03:22;;;;;;;9.80;4.50;;;;;;;27.09;94.23;100067.91;5091050;28;20198;-76
2022/06/24 06:05:49;;;;;;;5.60;4.20;;;;;;;27.91;87.97;100045.63;5088124;28;20719;-75
2022/06/24 06:08:18;;;;;;;6.50;4.10;;;;;;;28.24;85.64;100052.66;5092020;28;20201;-76
2022/06/24 06:10:45;;;;;;;6.78;4.85;;;;;;;28.23;83.04;100048.25;5101322;28;20205;-75
2022/06/24 06:13:13;;;;;;;10.07;5.93;;;;;;;28.51;82.94;100051.03;5110965;28;20190;-76
2022/06/24 06:15:42;;;;;;;6.13;4.47;;;;;;;28.52;82.59;100052.75;5111120;28;20205;-74
2022/06/24 06:18:09;;;;;;;9.98;4.93;;;;;;;29.05;80.03;100058.41;5111212;28;20225;-75
2022/06/24 06:20:36;;;;;;;9.25;4.50;;;;;;;29.39;77.52;100061.72;5094784;28;20290;-75
2022/06/24 06:23:04;;;;;;;7.22;4.35;;;;;;;29.77;72.84;100059.28;5095638;28;20225;-75
2022/06/24 06:25:31;;;;;;;6.60;4.10;;;;;;;29.58;73.06;100070.28;5093487;28;20280;-75
2022/06/24 06:27:58;;;;;;;8.02;4.32;;;;;;;29.43;74.06;100064.06;5110951;28;20193;-75
2022/06/24 06:30:26;;;;;;;8.02;4.30;;;;;;;28.91;76.55;100060.22;5106679;28;20193;-76
2022/06/24 06:32:53;;;;;;;5.15;4.10;;;;;;;29.17;77.05;100066.63;5082762;28;20221;-76
2022/06/24 06:35:20;;;;;;;5.40;4.25;;;;;;;29.30;77.04;100068.47;5109203;28;20212;-75
2022/06/24 06:37:46;;;;;;;10.13;4.15;;;;;;;28.98;75.53;100070.44;5086870;28;20209;-75
2022/06/24 06:40:13;;;;;;;5.28;4.07;;;;;;;29.40;73.13;100068.75;5110823;28;20204;-73
2022/06/24 06:42:41;;;;;;;7.00;4.20;;;;;;;28.95;75.57;100067.97;5110837;28;20676;-76
2022/06/24 06:45:08;;;;;;;5.28;4.40;;;;;;;28.28;79.97;100064.88;5110518;28;20212;-75
2022/06/24 06:47:36;;;;;;;6.35;4.93;;;;;;;28.04;81.99;100035.97;5111243;28;20211;-78
2022/06/24 06:50:05;;;;;;;10.63;4.45;;;;;;;27.95;83.93;100057.81;5094108;28;20198;-76
2022/06/24 06:52:32;;;;;;;10.02;4.90;;;;;;;27.63;88.37;100066.75;5110185;28;20241;-76
2022/06/24 06:54:59;;;;;;;6.38;4.78;;;;;;;27.54;89.21;100043.28;5110618;28;20209;-77
2022/06/24 06:57:26;;;;;;;9.27;4.70;;;;;;;27.51;90.70;100059.44;5106894;28;20204;-77
2022/06/24 06:59:53;;;;;;;6.75;5.00;;;;;;;27.75;90.97;100058.09;5110862;28;20197;-77
2022/06/24 07:02:19;;;;;;;7.82;5.40;;;;;;;28.06;86.90;100058.06;5110780;28;20209;-78
2022/06/24 07:04:48;;;;;;;6.32;4.50;;;;;;;27.58;90.88;100064.34;5110529;28;20194;-78
2022/06/24 07:07:14;;;;;;;5.45;4.93;;;;;;;27.61;92.06;100057.16;5106777;28;20201;-78
2022/06/24 07:09:42;;;;;;;9.15;4.20;;;;;;;27.47;93.57;100061.41;5110325;28;20212;-78
2022/06/24 07:12:09;;;;;;;5.28;4.45;;;;;;;27.70;90.38;100038.84;5110152;28;20244;-79
2022/06/24 07:14:36;;;;;;;6.75;5.00;;;;;;;27.29;91.36;100038.41;5110706;28;20205;-74
2022/06/24 07:17:03;;;;;;;5.55;4.50;;;;;;;27.13;96.38;100045.50;5105443;28;20201;-75
2022/06/24 07:19:30;;;;;;;8.98;4.72;;;;;;;27.25;94.46;100050.19;5101128;28;20196;-75
2022/06/24 07:21:58;;;;;;;16.85;4.88;;;;;;;27.65;91.70;100048.88;5089865;28;20230;-75
2022/06/24 07:24:25;;;;;;;7.93;4.60;;;;;;;27.75;89.60;100050.09;5093662;28;20303;-74
2022/06/24 07:26:52;;;;;;;5.13;4.57;;;;;;;28.02;87.58;100043.19;5074565;28;20209;-74
2022/06/24 07:29:19;;;;;;;7.50;4.43;;;;;;;28.15;85.90;100032.69;5110156;28;20212;-75
2022/06/24 07:31:47;;;;;;;8.85;4.18;;;;;;;28.20;88.11;100040.44;5107781;28;20229;-74
2022/06/24 07:34:14;;;;;;;9.75;4.70;;;;;;;28.08;87.82;100042.88;5103085;28;20294;-74
2022/06/24 07:36:41;;;;;;;5.30;3.80;;;;;;;27.81;86.09;100030.22;5104721;28;20217;-75
2022/06/24 07:39:10;;;;;;;4.95;3.90;;;;;;;27.90;87.89;100033.22;5105712;28;20205;-75
2022/06/24 07:41:37;;;;;;;8.23;4.70;;;;;;;27.44;85.35;100034.03;5102721;28;20213;-74
2022/06/24 07:44:04;;;;;;;6.28;4.13;;;;;;;26.99;88.42;100032.06;5074537;28;20210;-75
2022/06/24 07:46:31;;;;;;;5.75;4.15;;;;;;;26.96;87.46;100027.78;5110307;28;20266;-74
2022/06/24 07:48:58;;;;;;;6.00;4.38;;;;;;;26.94;90.89;100024.31;5113218;28;20280;-75
2022/06/24 07:51:24;;;;;;;6.65;3.70;;;;;;;26.69;93.46;100026.53;5074426;28;20198;-75
2022/06/24 07:53:51;;;;;;;6.65;4.45;;;;;;;26.98;89.54;100020.56;5111220;28;20232;-75
2022/06/24 07:59:04;;;;;;;9.73;3.72;;;;;;;27.31;87.50;100001.06;5100513;28;20590;-76
2022/06/24 08:01:31;;;;;;;16.00;4.65;;;;;;;27.39;86.44;100012.16;5106751;28;20201;-76
2022/06/24 08:03:58;;;;;;;7.53;4.40;;;;;;;27.21;88.83;100010.50;5102052;28;20208;-78
2022/06/24 08:06:26;;;;;;;4.85;4.15;;;;;;;27.40;87.71;100019.16;5113828;28;20293;-77
2022/06/24 08:08:52;;;;;;;6.95;3.70;;;;;;;27.29;84.70;100029.59;5094420;28;20583;-76
2022/06/24 08:11:21;;;;;;;4.10;3.53;;;;;;;27.09;81.51;100007.53;5101221;28;20198;-77
2022/06/24 08:13:47;;;;;;;5.05;3.10;;;;;;;27.16;81.39;100017.84;5109030;28;20205;-77
2022/06/24 08:16:14;;;;;;;4.45;3.53;;;;;;;26.80;81.92;100023.31;5113412;28;20615;-77
2022/06/24 08:18:41;;;;;;;3.85;3.42;;;;;;;27.01;77.70;100014.22;5113565;28;20443;-77
2022/06/24 08:21:08;;;;;;;4.78;2.78;;;;;;;27.15;75.31;100011.66;5113229;28;20194;-77
2022/06/24 08:23:35;;;;;;;3.83;3.45;;;;;;;27.14;75.07;100019.75;5113358;28;20201;-76
2022/06/24 08:26:01;;;;;;;3.28;3.08;;;;;;;27.21;76.30;100015.81;5076939;28;20205;-77
2022/06/24 08:28:30;;;;;;;4.35;2.90;;;;;;;27.47;72.24;100026.78;5098202;28;20203;-77
2022/06/24 08:30:56;;;;;;;3.50;3.03;;;;;;;27.54;69.64;100029.97;5101360;28;20197;-77
2022/06/24 08:33:24;;;;;;;9.40;2.80;;;;;;;27.43;69.59;100035.00;5113209;28;20709;-77
2022/06/24 08:35:51;;;;;;;4.93;3.40;;;;;;;27.76;68.10;100017.16;5097996;28;20222;-75
2022/06/24 08:38:19;;;;;;;3.08;2.83;;;;;;;27.95;66.87;100027.63;5095745;28;20198;-76
2022/06/24 08:40:48;;;;;;;7.60;3.13;;;;;;;28.08;66.07;100032.19;5106681;28;20687;-75
2022/06/24 08:43:15;;;;;;;3.67;2.75;;;;;;;28.23;65.16;100034.94;5101891;28;20210;-74
2022/06/24 08:45:44;;;;;;;6.90;3.20;;;;;;;28.27;66.36;100031.13;5103212;28;20219;-75
2022/06/24 08:48:11;;;;;;;2.95;2.70;;;;;;;27.94;64.05;100018.78;5112867;28;20220;-75
2022/06/24 08:50:38;;;;;;;8.63;3.00;;;;;;;27.93;65.41;100032.22;5108870;28;20193;-75
2022/06/24 08:53:07;;;;;;;3.35;2.70;;;;;;;27.94;66.73;100034.78;5105176;28;20249;-74
2022/06/24 08:55:36;;;;;;;5.35;2.95;;;;;;;27.88;67.44;100040.47;5097482;28;20198;-73
2022/06/24 08:58:07;;;;;;;5.03;2.80;;;;;;;27.92;66.44;100036.69;5092099;28;20198;-74
2022/06/24 09:00:34;;;;;;;3.70;3.50;;;;;;;27.97;66.86;100033.72;5092174;28;20646;-74
2022/06/24 09:03:03;;;;;;;3.72;3.45;;;;;;;27.96;67.67;100027.56;5102525;28;20205;-75
2022/06/24 09:05:30;;;;;;;4.63;2.83;;;;;;;28.12;67.37;100021.34;5112488;28;20201;-75
2022/06/24 09:08:03;;;;;;;4.70;3.33;;;;;;;28.04;67.42;100019.09;5112303;28;20272;-73
2022/06/24 09:10:30;;;;;;;5.63;3.15;;;;;;;28.33;68.46;100018.28;5112634;28;20243;-72
2022/06/24 09:12:57;;;;;;;5.80;3.40;;;;;;;28.13;68.07;100005.28;5107433;28;20221;-73
2022/06/24 09:15:25;;;;;;;3.30;3.10;;;;;;;28.26;67.14;100021.41;5092797;28;20280;-74
2022/06/24 09:17:52;;;;;;;4.70;3.22;;;;;;;28.60;66.33;100030.97;5097713;28;20224;-76
2022/06/24 09:20:22;;;;;;;7.85;3.33;;;;;;;28.67;65.42;100017.19;5112426;28;20197;-75
2022/06/24 09:22:50;;;;;;;3.25;2.95;;;;;;;28.89;64.50;100014.94;5112830;28;20232;-76
2022/06/24 09:25:18;;;;;;;5.78;3.70;;;;;;;29.02;64.38;100018.56;5087796;28;20223;-76
2022/06/24 09:27:46;;;;;;;3.95;3.28;;;;;;;29.24;63.41;100009.22;5092422;28;20202;-78
2022/06/24 09:30:15;;;;;;;5.57;3.17;;;;;;;28.83;65.43;100019.78;5072913;28;20206;-77
2022/06/24 09:33:02;;;;;;;8.40;3.40;;;;;;;29.30;64.39;100016.84;5072786;28;20226;-77
2022/06/24 09:35:36;;;;;;;6.18;4.15;;;;;;;29.16;62.56;100006.16;5092437;28;20322;-75
2022/06/24 09:38:03;;;;;;;7.88;3.70;;;;;;;29.33;63.63;100014.84;5095914;28;20207;-76
2022/06/24 09:40:31;;;;;;;5.05;3.70;;;;;;;29.44;64.82;100012.38;5098673;28;20194;-76
2022/06/24 09:43:00;;;;;;;5.90;4.05;;;;;;;29.34;62.67;99989.00;5098157;28;20212;-74
2022/06/24 09:45:44;;;;;;;4.13;3.75;;;;;;;29.04;65.35;100008.63;5091369;28;20260;-73
2022/06/24 09:48:11;;;;;;;7.03;4.22;;;;;;;29.09;63.63;100008.34;5091909;28;20228;-75
2022/06/24 09:50:41;;;;;;;8.43;4.40;;;;;;;29.38;63.09;100018.09;5100052;28;20233;-76
2022/06/24 09:53:09;;;;;;;5.18;4.03;;;;;;;29.38;60.80;99998.53;5111322;28;20240;-76
2022/06/24 09:55:37;;;;;;;11.60;3.92;;;;;;;29.33;60.88;100016.66;5100408;28;20278;-77
2022/06/24 09:58:05;;;;;;;3.88;3.58;;;;;;;29.07;60.28;100004.06;5106627;28;20216;-77
2022/06/24 10:00:40;;;;;;;7.25;3.85;;;;;;;29.42;59.60;100008.09;5111575;28;20240;-77
2022/06/24 10:03:10;;;;;;;5.88;3.40;;;;;;;29.48;58.40;100015.69;5045549;28;20892;-78
2022/06/24 10:05:42;;;;;;;6.07;3.63;;;;;;;28.55;58.30;99855.97;5111579;28;20266;-79
2022/06/24 10:08:12;;;;;;;9.63;3.50;;;;;;;29.27;58.17;100009.03;5111585;28;20705;-83
2022/06/24 10:10:44;;;;;;;6.65;3.60;;;;;;;29.09;59.00;99988.78;5111125;28;20755;-81
2022/06/24 10:13:19;;;;;;;5.47;3.30;;;;;;;29.26;60.69;99992.16;5111635;28;20272;-81
2022/06/24 10:15:46;;;;;;;11.52;3.80;;;;;;;29.15;57.93;100009.75;5072822;28;20209;-79
2022/06/24 10:18:15;;;;;;;5.43;3.22;;;;;;;29.22;57.03;100006.63;5102116;28;20198;-79
2022/06/24 10:20:45;;;;;;;3.35;3.13;;;;;;;29.27;56.68;100001.03;5090993;28;20198;-81
2022/06/24 10:23:40;;;;;;;3.20;2.90;;;;;;;29.31;55.14;99995.41;5088817;28;20333;-76
2022/06/24 10:26:12;;;;;;;5.95;3.10;;;;;;;29.58;54.57;99995.44;5048339;28;20741;-79
2022/06/24 10:29:19;;;;;;;3.30;2.90;;;;;;;29.24;49.24;100007.41;5030560;28;20306;-80
2022/06/24 10:32:08;;;;;;;5.53;3.22;;;;;;;29.60;52.71;100001.56;5028211;28;20207;-79
2022/06/24 10:34:38;;;;;;;8.05;3.03;;;;;;;30.04;53.15;99990.63;5028456;28;20200;-80
2022/06/24 10:37:23;;;;;;;4.82;3.28;;;;;;;29.86;52.57;99998.06;5048058;28;20191;-82
2022/06/24 10:39:52;;;;;;;5.82;3.08;;;;;;;30.07;52.55;99995.81;4999306;28;20207;-80
2022/06/24 10:42:21;;;;;;;4.93;3.55;;;;;;;29.68;52.71;99975.16;5040913;28;20681;-78
2022/06/24 10:44:59;;;;;;;7.18;3.95;;;;;;;29.96;52.89;99990.31;5048201;28;20310;-76
2022/06/24 10:47:31;;;;;;;12.25;3.55;;;;;;;29.64;53.55;99981.69;5048180;28;20207;-76
2022/06/24 10:50:13;;;;;;;4.55;3.03;;;;;;;29.92;53.30;99992.31;5048492;28;20215;-79
2022/06/24 10:52:45;;;;;;;5.28;3.20;;;;;;;29.42;53.35;99976.88;5048057;28;20231;-78
2022/06/24 10:55:38;;;;;;;3.80;3.08;;;;;;;29.25;53.16;100005.59;5048274;28;20203;-79
2022/06/24 10:58:07;;;;;;;2.92;2.80;;;;;;;29.63;52.52;99996.00;5048476;28;20204;-78
2022/06/24 11:00:56;;;;;;;3.28;2.90;;;;;;;29.78;50.94;99995.03;5048267;28;20226;-79
2022/06/24 11:03:27;;;;;;;6.80;2.83;;;;;;;29.79;50.88;99994.03;5083218;28;20288;-77
2022/06/24 11:05:54;;;;;;;3.63;2.80;;;;;;;30.11;48.31;99985.75;5110576;28;20221;-78
2022/06/24 11:08:24;;;;;;;6.68;3.60;;;;;;;30.43;49.81;99997.81;5119960;28;20596;-80
2022/06/24 11:10:51;;;;;;;5.07;3.03;;;;;;;30.34;50.02;99951.13;5115488;28;20199;-83
2022/06/24 11:13:21;;;;;;;4.93;3.30;;;;;;;30.17;50.20;99983.53;5115443;28;20217;-83
2022/06/24 11:15:49;;;;;;;3.35;3.05;;;;;;;30.06;51.93;99985.19;5116302;28;20288;-79
2022/06/24 11:18:18;;;;;;;3.67;3.38;;;;;;;30.55;49.95;99983.59;5116271;28;20201;-85
2022/06/24 11:20:47;;;;;;;8.52;3.05;;;;;;;30.80;49.22;99986.31;5116360;28;20254;-83
2022/06/24 11:23:17;;;;;;;6.05;3.25;;;;;;;31.22;47.92;99979.75;5116476;28;20224;-83
2022/06/24 11:25:49;;;;;;;3.72;3.25;;;;;;;30.80;48.16;99990.78;5115708;28;20733;-89
2022/06/24 11:28:24;;;;;;;10.95;3.53;;;;;;;31.13;47.66;99987.59;5116055;28;20201;-81
2022/06/24 11:30:52;;;;;;;3.97;3.58;;;;;;;30.31;48.72;99977.22;5115589;28;20208;-84
2022/06/24 11:33:19;;;;;;;5.65;3.10;;;;;;;30.66;47.13;99973.03;5114627;28;20240;-78
2022/06/24 11:35:48;;;;;;;2.90;2.70;;;;;;;30.72;46.28;99983.28;5114289;28;20205;-76
2022/06/24 11:38:15;;;;;;;7.88;3.13;;;;;;;29.98;46.69;99980.34;5114720;28;20197;-76
2022/06/24 11:40:42;;;;;;;5.30;2.97;;;;;;;30.36;46.36;99964.38;5114994;28;20201;-78
2022/06/24 11:43:12;;;;;;;7.15;2.95;;;;;;;30.21;45.96;99960.09;5114815;28;20209;-78